createdAt,value
2019-01-26T00:02:00.485Z,-2.93
2019-01-26T00:04:31.699Z,-2.93
2019-01-26T00:07:02.537Z,-2.91
2019-01-26T00:09:39.949Z,-2.92
2019-01-26T00:12:11.114Z,-2.88
2019-01-26T00:14:43.519Z,-2.89
2019-01-26T00:17:15.048Z,-2.90
2019-01-26T00:19:49.959Z,-2.86
2019-01-26T00:22:20.714Z,-2.84
2019-01-26T00:24:57.809Z,-2.83
2019-01-26T00:27:28.647Z,-2.81
2019-01-26T00:29:59.388Z,-2.81
2019-01-26T00:32:30.529Z,-2.79
2019-01-26T00:35:03.305Z,-2.79
2019-01-26T00:37:34.165Z,-2.78
2019-01-26T00:40:09.400Z,-2.79
2019-01-26T00:42:40.199Z,-2.78
2019-01-26T00:45:12.090Z,-2.78
2019-01-26T00:47:43.267Z,-2.73
2019-01-26T00:50:14.494Z,-2.71
2019-01-26T00:52:46.870Z,-2.70
2019-01-26T00:55:18.074Z,-2.66
2019-01-26T00:57:48.988Z,-2.62
2019-01-26T01:00:19.922Z,-2.63
2019-01-26T01:02:57.133Z,-2.63
2019-01-26T01:05:27.979Z,-2.61
2019-01-26T01:07:58.964Z,-2.61
2019-01-26T01:10:30.095Z,-2.62
2019-01-26T01:13:00.974Z,-2.63
2019-01-26T01:15:31.789Z,-2.60
2019-01-26T01:18:07.495Z,-2.61
2019-01-26T01:20:39.379Z,-2.57
2019-01-26T01:23:10.338Z,-2.57
2019-01-26T01:25:42.787Z,-2.58
2019-01-26T01:28:13.622Z,-2.58
2019-01-26T01:30:50.308Z,-2.58
2019-01-26T01:33:22.331Z,-2.57
2019-01-26T01:35:53.104Z,-2.56
2019-01-26T01:38:24.382Z,-2.55
2019-01-26T01:40:56.428Z,-2.58
2019-01-26T01:43:27.492Z,-2.58
2019-01-26T01:45:58.672Z,-2.57
2019-01-26T01:48:29.935Z,-2.55
2019-01-26T01:51:03.101Z,-2.52
2019-01-26T01:53:35.266Z,-2.55
2019-01-26T01:56:06.122Z,-2.53
2019-01-26T01:58:36.964Z,-2.47
2019-01-26T02:01:07.824Z,-2.44
2019-01-26T02:03:38.613Z,-2.42
2019-01-26T02:06:09.769Z,-2.42
2019-01-26T02:08:40.723Z,-2.41
2019-01-26T02:11:13.103Z,-2.41
2019-01-26T02:13:43.993Z,-2.40
2019-01-26T02:16:14.765Z,-2.41
2019-01-26T02:18:45.555Z,-2.42
2019-01-26T02:21:17.212Z,-2.40
2019-01-26T02:23:48.372Z,-2.39
2019-01-26T02:26:19.132Z,-2.41
2019-01-26T02:28:50.279Z,-2.42
2019-01-26T02:31:21.318Z,-2.43
2019-01-26T02:33:52.670Z,-2.41
2019-01-26T02:36:26.583Z,-2.42
2019-01-26T02:38:58.429Z,-2.45
2019-01-26T02:41:29.544Z,-2.43
2019-01-26T02:44:00.820Z,-2.45
2019-01-26T02:46:32.761Z,-2.46
2019-01-26T02:49:03.623Z,-2.44
2019-01-26T02:51:34.364Z,-2.45
2019-01-26T02:54:05.215Z,-2.47
2019-01-26T02:56:36.016Z,-2.48
2019-01-26T02:59:06.882Z,-2.49
2019-01-26T03:01:37.690Z,-2.51
2019-01-26T03:04:08.889Z,-2.52
2019-01-26T03:06:39.694Z,-2.52
2019-01-26T03:09:10.520Z,-2.53
2019-01-26T03:11:41.341Z,-2.54
2019-01-26T03:14:12.816Z,-2.55
2019-01-26T03:16:44.376Z,-2.54
2019-01-26T03:19:15.142Z,-2.51
2019-01-26T03:21:45.985Z,-2.51
2019-01-26T03:24:17.217Z,-2.52
2019-01-26T03:26:48.632Z,-2.52
2019-01-26T03:29:19.490Z,-2.53
2019-01-26T03:31:50.356Z,-2.55
2019-01-26T03:34:21.743Z,-2.50
2019-01-26T03:36:52.483Z,-2.50
2019-01-26T03:39:23.530Z,-2.48
2019-01-26T03:41:54.463Z,-2.49
2019-01-26T03:44:25.562Z,-2.49
2019-01-26T03:46:56.331Z,-2.50
2019-01-26T03:49:27.144Z,-2.51
2019-01-26T03:51:58.223Z,-2.51
2019-01-26T03:54:29.053Z,-2.49
2019-01-26T03:57:01.109Z,-2.51
2019-01-26T03:59:33.499Z,-2.49
2019-01-26T04:02:04.266Z,-2.45
2019-01-26T04:04:35.415Z,-2.47
2019-01-26T04:07:06.908Z,-2.48
2019-01-26T04:09:37.727Z,-2.45
2019-01-26T04:12:08.473Z,-2.48
2019-01-26T04:14:39.261Z,-2.45
2019-01-26T04:17:10.039Z,-2.47
2019-01-26T04:19:41.973Z,-2.47
2019-01-26T04:22:12.831Z,-2.47
2019-01-26T04:24:43.648Z,-2.45
2019-01-26T04:27:17.809Z,-2.45
2019-01-26T04:29:53.170Z,-2.43
2019-01-26T04:32:23.979Z,-2.42
2019-01-26T04:34:55.077Z,-2.41
2019-01-26T04:37:26.936Z,-2.42
2019-01-26T04:39:59.498Z,-2.42
2019-01-26T04:42:30.570Z,-2.43
2019-01-26T04:45:01.458Z,-2.37
2019-01-26T04:47:32.357Z,-2.36
2019-01-26T04:50:03.652Z,-2.36
2019-01-26T04:52:34.518Z,-2.35
2019-01-26T04:55:05.566Z,-2.35
2019-01-26T04:57:37.933Z,-2.36
2019-01-26T05:00:18.117Z,-2.34
2019-01-26T05:02:49.496Z,-2.34
2019-01-26T05:05:20.639Z,-2.29
2019-01-26T05:07:51.544Z,-2.31
2019-01-26T05:10:22.398Z,-2.31
2019-01-26T05:12:53.173Z,-2.31
2019-01-26T05:15:24.261Z,-2.27
2019-01-26T05:17:55.446Z,-2.27
2019-01-26T05:20:27.071Z,-2.25
2019-01-26T05:22:57.841Z,-2.26
2019-01-26T05:25:28.674Z,-2.24
2019-01-26T05:27:59.823Z,-2.22
2019-01-26T05:30:31.085Z,-2.22
2019-01-26T05:33:01.907Z,-2.19
2019-01-26T05:35:34.770Z,-2.20
2019-01-26T05:38:06.140Z,-2.20
2019-01-26T05:40:36.903Z,-2.19
2019-01-26T05:43:08.980Z,-2.19
2019-01-26T05:45:39.937Z,-2.18
2019-01-26T05:48:11.328Z,-2.16
2019-01-26T05:50:42.501Z,-2.16
2019-01-26T05:53:15.225Z,-2.15
2019-01-26T05:55:46.999Z,-2.11
2019-01-26T05:58:17.845Z,-2.12
2019-01-26T06:00:49.939Z,-2.13
2019-01-26T06:03:21.066Z,-2.09
2019-01-26T06:05:51.927Z,-2.11
2019-01-26T06:08:22.891Z,-2.10
2019-01-26T06:10:53.680Z,-2.09
2019-01-26T06:13:24.531Z,-2.06
2019-01-26T06:15:55.640Z,-2.06
2019-01-26T06:18:26.402Z,-2.07
2019-01-26T06:20:58.747Z,-2.04
2019-01-26T06:23:29.816Z,-2.05
2019-01-26T06:26:00.575Z,-2.04
2019-01-26T06:28:31.674Z,-2.02
2019-01-26T06:31:02.434Z,-1.99
2019-01-26T06:33:33.216Z,-1.97
2019-01-26T06:36:04.092Z,-1.95
2019-01-26T06:38:35.004Z,-1.97
2019-01-26T06:41:05.947Z,-1.96
2019-01-26T06:43:37.135Z,-1.93
2019-01-26T06:46:12.764Z,-1.93
2019-01-26T06:48:49.014Z,-1.93
2019-01-26T06:51:23.961Z,-1.92
2019-01-26T06:53:54.722Z,-1.89
2019-01-26T06:56:25.525Z,-1.87
2019-01-26T06:59:00.710Z,-1.86
2019-01-26T07:01:33.218Z,-1.87
2019-01-26T07:04:03.985Z,-1.85
2019-01-26T07:06:45.248Z,-1.83
2019-01-26T07:09:17.605Z,-1.81
2019-01-26T07:11:49.786Z,-1.80
2019-01-26T07:14:20.878Z,-1.80
2019-01-26T07:16:51.756Z,-1.79
2019-01-26T07:19:23.673Z,-1.74
2019-01-26T07:21:54.534Z,-1.75
2019-01-26T07:24:25.679Z,-1.72
2019-01-26T07:26:56.429Z,-1.71
2019-01-26T07:29:27.393Z,-1.68
2019-01-26T07:31:59.496Z,-1.66
2019-01-26T07:34:31.290Z,-1.65
2019-01-26T07:37:02.047Z,-1.63
2019-01-26T07:39:34.993Z,-1.59
2019-01-26T07:42:05.853Z,-1.59
2019-01-26T07:44:39.410Z,-1.56
2019-01-26T07:47:10.226Z,-1.53
2019-01-26T07:49:40.975Z,-1.52
2019-01-26T07:52:12.523Z,-1.50
2019-01-26T07:54:44.350Z,-1.48
2019-01-26T07:57:15.394Z,-1.45
2019-01-26T07:59:46.183Z,-1.45
2019-01-26T08:02:17.396Z,-1.42
2019-01-26T08:04:48.391Z,-1.41
2019-01-26T08:07:19.166Z,-1.41
2019-01-26T08:09:50.475Z,-1.37
2019-01-26T08:12:21.730Z,-1.37
2019-01-26T08:15:22.523Z,-1.36
2019-01-26T08:18:02.965Z,-1.35
2019-01-26T08:20:36.297Z,-1.33
2019-01-26T08:23:07.677Z,-1.28
2019-01-26T08:25:42.513Z,-1.25
2019-01-26T08:28:23.970Z,-1.23
2019-01-26T08:31:02.326Z,-1.18
2019-01-26T08:33:46.467Z,-1.15
2019-01-26T08:36:28.685Z,-1.13
2019-01-26T08:39:34.219Z,-1.12
2019-01-26T08:42:06.593Z,-1.10
2019-01-26T08:44:37.388Z,-1.04
2019-01-26T08:47:08.755Z,-1.00
2019-01-26T08:50:20.858Z,-0.98
2019-01-26T08:53:12.374Z,-0.93
2019-01-26T08:56:06.823Z,-0.88
2019-01-26T08:58:37.538Z,-0.82
2019-01-26T09:01:10.060Z,-0.78
2019-01-26T09:03:54.602Z,-0.76
2019-01-26T09:06:39.344Z,-0.73
2019-01-26T09:09:21.582Z,-0.68
2019-01-26T09:12:09.724Z,-0.64
2019-01-26T09:14:41.354Z,-0.61
2019-01-26T09:17:13.233Z,-0.59
2019-01-26T09:19:44.047Z,-0.57
2019-01-26T09:22:15.449Z,-0.52
2019-01-26T09:24:46.215Z,-0.51
2019-01-26T09:27:22.033Z,-0.50
2019-01-26T09:29:53.875Z,-0.47
2019-01-26T09:32:24.891Z,-0.45
2019-01-26T09:34:56.170Z,-0.42
2019-01-26T09:37:27.401Z,-0.39
2019-01-26T09:39:58.573Z,-0.38
2019-01-26T09:42:32.246Z,-0.34
2019-01-26T09:45:07.573Z,-0.33
2019-01-26T09:47:41.311Z,-0.32
2019-01-26T09:50:15.009Z,-0.29
2019-01-26T09:52:46.135Z,-0.26
2019-01-26T09:55:18.202Z,-0.25
2019-01-26T09:57:49.114Z,-0.20
2019-01-26T10:00:20.315Z,-0.16
2019-01-26T10:02:51.188Z,-0.15
2019-01-26T10:05:23.448Z,-0.13
2019-01-26T10:07:57.376Z,-0.09
2019-01-26T10:10:31.718Z,-0.06
2019-01-26T10:13:08.068Z,-0.02
2019-01-26T10:15:40.153Z,0.00
2019-01-26T10:18:11.435Z,0.04
2019-01-26T10:20:44.190Z,0.03
2019-01-26T10:23:15.464Z,0.05
2019-01-26T10:25:49.049Z,0.05
2019-01-26T10:28:22.884Z,0.08
2019-01-26T10:31:00.068Z,0.10
2019-01-26T10:33:35.102Z,0.13
2019-01-26T10:36:27.622Z,0.16
2019-01-26T10:39:15.743Z,0.18
2019-01-26T10:42:13.951Z,0.19
2019-01-26T10:44:46.323Z,0.20
2019-01-26T10:47:23.524Z,0.25
2019-01-26T10:50:02.947Z,0.27
2019-01-26T10:52:50.512Z,0.29
2019-01-26T10:55:30.071Z,0.29
2019-01-26T10:58:09.507Z,0.31
2019-01-26T11:00:43.365Z,0.32
2019-01-26T11:03:25.564Z,0.35
2019-01-26T11:05:56.454Z,0.38
2019-01-26T11:08:33.531Z,0.38
2019-01-26T11:11:04.349Z,0.41
2019-01-26T11:13:36.039Z,0.45
2019-01-26T11:16:09.579Z,0.48
2019-01-26T11:18:46.418Z,0.52
2019-01-26T11:21:18.967Z,0.55
2019-01-26T11:23:50.233Z,0.57
2019-01-26T11:26:25.290Z,0.54
2019-01-26T11:29:00.561Z,0.55
2019-01-26T11:31:32.257Z,0.54
2019-01-26T11:34:06.589Z,0.55
2019-01-26T11:36:44.252Z,0.59
2019-01-26T11:39:20.222Z,0.63
2019-01-26T11:41:51.222Z,0.63
2019-01-26T11:44:22.045Z,0.66
2019-01-26T11:47:26.047Z,0.66
2019-01-26T11:50:01.031Z,0.72
2019-01-26T11:52:32.397Z,0.76
2019-01-26T11:55:18.883Z,0.74
2019-01-26T11:57:51.349Z,0.77
2019-01-26T12:00:47.386Z,0.79
2019-01-26T12:03:50.042Z,0.80
2019-01-26T12:06:39.050Z,0.84
2019-01-26T12:09:14.512Z,0.84
2019-01-26T12:11:47.060Z,0.86
2019-01-26T12:14:19.982Z,0.86
2019-01-26T12:16:51.379Z,0.88
2019-01-26T12:19:25.321Z,0.90
2019-01-26T12:21:56.464Z,0.89
2019-01-26T12:24:38.221Z,0.93
2019-01-26T12:27:09.234Z,0.93
2019-01-26T12:29:42.835Z,0.93
2019-01-26T12:32:14.470Z,0.93
2019-01-26T12:34:49.014Z,0.92
2019-01-26T12:37:23.925Z,0.94
2019-01-26T12:39:54.698Z,0.92
2019-01-26T12:42:26.350Z,0.93
2019-01-26T12:44:57.229Z,0.93
2019-01-26T12:47:28.079Z,0.91
2019-01-26T12:50:02.870Z,0.94
2019-01-26T12:52:39.348Z,0.95
2019-01-26T12:55:12.209Z,0.95
2019-01-26T12:57:48.913Z,0.93
2019-01-26T13:00:21.484Z,0.93
2019-01-26T13:02:57.176Z,0.92
2019-01-26T13:05:28.122Z,0.93
2019-01-26T13:08:00.613Z,0.92
2019-01-26T13:10:47.447Z,0.93
2019-01-26T13:13:30.857Z,0.92
2019-01-26T13:16:04.859Z,0.95
2019-01-26T13:18:49.493Z,0.93
2019-01-26T13:21:23.270Z,0.94
2019-01-26T13:23:57.394Z,0.93
2019-01-26T13:26:30.424Z,0.95
2019-01-26T13:29:01.372Z,0.97
2019-01-26T13:31:39.734Z,0.97
2019-01-26T13:34:13.816Z,0.96
2019-01-26T13:36:44.808Z,0.95
2019-01-26T13:39:18.392Z,0.95
2019-01-26T13:41:54.194Z,0.97
2019-01-26T13:44:34.627Z,0.98
2019-01-26T13:47:05.381Z,0.97
2019-01-26T13:49:44.176Z,0.96
2019-01-26T13:52:16.867Z,0.97
2019-01-26T13:54:48.707Z,0.97
2019-01-26T13:57:22.646Z,0.97
2019-01-26T13:59:53.444Z,1.02
2019-01-26T14:02:30.242Z,1.01
2019-01-26T14:05:05.581Z,0.99
2019-01-26T14:07:36.412Z,0.99
2019-01-26T14:10:10.025Z,0.98
2019-01-26T14:12:40.900Z,1.02
2019-01-26T14:15:18.331Z,1.01
2019-01-26T14:17:50.713Z,1.01
2019-01-26T14:20:36.770Z,0.99
2019-01-26T14:23:27.598Z,1.05
2019-01-26T14:26:02.027Z,1.03
2019-01-26T14:28:45.577Z,1.03
2019-01-26T14:31:23.131Z,1.02
2019-01-26T14:33:55.566Z,1.03
2019-01-26T14:36:34.063Z,1.01
2019-01-26T14:39:09.346Z,1.01
2019-01-26T14:41:41.776Z,1.02
2019-01-26T14:44:15.127Z,1.05
2019-01-26T14:46:46.150Z,1.01
2019-01-26T14:49:19.996Z,1.02
2019-01-26T14:51:53.076Z,1.03
2019-01-26T14:54:25.613Z,1.02
2019-01-26T14:56:56.724Z,1.05
2019-01-26T14:59:27.989Z,1.02
2019-01-26T15:02:00.432Z,1.04
2019-01-26T15:04:31.448Z,1.03
2019-01-26T15:07:02.553Z,1.04
2019-01-26T15:09:33.420Z,1.06
2019-01-26T15:12:04.718Z,1.04
2019-01-26T15:14:44.999Z,1.00
2019-01-26T15:17:23.745Z,1.00
2019-01-26T15:19:57.015Z,0.97
2019-01-26T15:22:29.436Z,0.95
2019-01-26T15:25:00.527Z,0.95
2019-01-26T15:27:35.287Z,0.96
2019-01-26T15:30:16.923Z,0.92
2019-01-26T15:32:48.401Z,0.94
2019-01-26T15:35:19.434Z,0.96
2019-01-26T15:37:51.573Z,0.93
2019-01-26T15:40:29.267Z,0.97
2019-01-26T15:43:04.227Z,0.95
2019-01-26T15:45:45.962Z,0.96
2019-01-26T15:48:16.793Z,0.95
2019-01-26T15:50:47.632Z,0.98
2019-01-26T15:53:21.469Z,0.97
2019-01-26T15:55:54.749Z,0.98
2019-01-26T15:58:25.527Z,0.99
2019-01-26T16:00:59.653Z,1.03
2019-01-26T16:03:32.290Z,1.06
2019-01-26T16:06:07.028Z,1.03
2019-01-26T16:08:41.164Z,1.06
2019-01-26T16:11:17.421Z,1.05
2019-01-26T16:13:48.565Z,1.04
2019-01-26T16:16:21.656Z,1.06
2019-01-26T16:18:55.508Z,1.06
2019-01-26T16:21:27.461Z,1.08
2019-01-26T16:24:02.687Z,1.14
2019-01-26T16:26:33.862Z,1.15
2019-01-26T16:29:10.696Z,1.17
2019-01-26T16:32:04.213Z,1.14
2019-01-26T16:34:38.023Z,1.20
2019-01-26T16:37:10.700Z,1.20
2019-01-26T16:39:50.677Z,1.31
2019-01-26T16:42:29.438Z,1.24
2019-01-26T16:45:03.299Z,1.26
2019-01-26T16:47:34.510Z,1.28
2019-01-26T16:50:11.201Z,1.25
2019-01-26T16:52:46.309Z,1.30
2019-01-26T16:55:20.058Z,1.27
2019-01-26T16:58:05.615Z,1.29
2019-01-26T17:01:00.430Z,1.27
2019-01-26T17:03:50.600Z,1.27
2019-01-26T17:06:21.724Z,1.35
2019-01-26T17:08:55.207Z,1.34
2019-01-26T17:11:26.598Z,1.41
2019-01-26T17:14:01.197Z,1.43
2019-01-26T17:16:33.576Z,1.50
2019-01-26T17:19:07.741Z,1.52
2019-01-26T17:21:46.435Z,1.49
2019-01-26T17:24:17.244Z,1.49
2019-01-26T17:26:52.816Z,1.52
2019-01-26T17:29:24.257Z,1.48
2019-01-26T17:32:29.068Z,1.41
2019-01-26T17:35:09.359Z,1.49
2019-01-26T17:37:46.624Z,1.53
2019-01-26T17:40:21.832Z,1.54
2019-01-26T17:42:53.028Z,1.49
2019-01-26T17:45:30.201Z,1.46
2019-01-26T17:48:09.236Z,1.47
2019-01-26T17:50:44.801Z,1.47
2019-01-26T17:53:20.902Z,1.43
2019-01-26T17:56:06.117Z,1.44
2019-01-26T17:58:45.779Z,1.48
2019-01-26T18:01:28.683Z,1.49
2019-01-26T18:04:09.672Z,1.50
2019-01-26T18:06:37.903Z,1.44
2019-01-26T18:09:15.897Z,1.44
2019-01-26T18:11:55.815Z,1.45
2019-01-26T18:14:26.806Z,1.48
2019-01-26T18:16:58.311Z,1.45
2019-01-26T18:19:32.295Z,1.49
2019-01-26T18:22:13.070Z,1.45
2019-01-26T18:24:46.574Z,1.47
2019-01-26T18:27:22.028Z,1.49
2019-01-26T18:29:52.864Z,1.51
2019-01-26T18:32:27.782Z,1.47
2019-01-26T18:34:58.838Z,1.48
2019-01-26T18:37:30.395Z,1.49
2019-01-26T18:40:05.467Z,1.56
2019-01-26T18:42:58.101Z,1.53
2019-01-26T18:45:32.391Z,1.48
2019-01-26T18:48:05.174Z,1.49
2019-01-26T18:50:48.369Z,1.48
2019-01-26T18:53:19.093Z,1.52
2019-01-26T18:55:52.737Z,1.54
2019-01-26T18:58:24.326Z,1.55
2019-01-26T19:01:01.631Z,1.49
2019-01-26T19:04:02.447Z,1.46
2019-01-26T19:06:37.461Z,1.43
2019-01-26T19:09:20.207Z,1.43
2019-01-26T19:11:51.189Z,1.42
2019-01-26T19:14:30.202Z,1.39
2019-01-26T19:17:04.226Z,1.38
2019-01-26T19:19:40.508Z,1.37
2019-01-26T19:22:15.140Z,1.37
2019-01-26T19:24:47.083Z,1.44
2019-01-26T19:27:32.954Z,1.46
2019-01-26T19:30:04.133Z,1.43
2019-01-26T19:32:36.296Z,1.37
2019-01-26T19:35:15.406Z,1.38
2019-01-26T19:37:49.159Z,1.37
2019-01-26T19:40:25.738Z,1.37
2019-01-26T19:43:00.536Z,1.37
2019-01-26T19:45:47.445Z,1.42
2019-01-26T19:48:25.849Z,1.40
2019-01-26T19:51:19.902Z,1.43
2019-01-26T19:54:16.454Z,1.43
2019-01-26T19:57:04.686Z,1.45
2019-01-26T19:59:43.027Z,1.38
2019-01-26T20:02:14.569Z,1.37
2019-01-26T20:04:47.090Z,1.45
2019-01-26T20:07:27.402Z,1.44
2019-01-26T20:10:01.689Z,1.49
2019-01-26T20:12:38.971Z,1.46
2019-01-26T20:15:22.443Z,1.43
2019-01-26T20:18:14.052Z,1.41
2019-01-26T20:20:45.415Z,1.44
2019-01-26T20:23:23.988Z,1.40
2019-01-26T20:25:56.742Z,1.41
2019-01-26T20:28:46.950Z,1.43
2019-01-26T20:31:33.913Z,1.45
2019-01-26T20:34:23.872Z,1.44
2019-01-26T20:37:01.084Z,1.41
2019-01-26T20:39:34.528Z,1.48
2019-01-26T20:42:14.152Z,1.48
2019-01-26T20:44:47.951Z,1.47
2019-01-26T20:47:21.722Z,1.48
2019-01-26T20:50:10.597Z,1.51
2019-01-26T20:52:43.610Z,1.48
2019-01-26T20:55:29.093Z,1.49
2019-01-26T20:58:05.834Z,1.48
2019-01-26T21:00:43.791Z,1.48
2019-01-26T21:03:24.865Z,1.51
2019-01-26T21:06:06.687Z,1.42
2019-01-26T21:08:37.633Z,1.41
2019-01-26T21:11:12.250Z,1.41
2019-01-26T21:13:46.532Z,1.42
2019-01-26T21:16:30.796Z,1.43
2019-01-26T21:19:04.835Z,1.46
2019-01-26T21:21:35.761Z,1.43
2019-01-26T21:24:11.721Z,1.46
2019-01-26T21:26:51.962Z,1.42
2019-01-26T21:29:25.544Z,1.43
2019-01-26T21:32:07.043Z,1.47
2019-01-26T21:35:13.584Z,1.47
2019-01-26T21:37:52.633Z,1.41
2019-01-26T21:40:32.483Z,1.43
2019-01-26T21:43:05.361Z,1.51
2019-01-26T21:45:44.202Z,1.51
2019-01-26T21:48:38.158Z,1.50
2019-01-26T21:51:26.412Z,1.44
2019-01-26T21:54:04.374Z,1.43
2019-01-26T21:56:38.588Z,1.50
2019-01-26T21:59:10.084Z,1.46
2019-01-26T22:01:48.966Z,1.40
2019-01-26T22:04:43.692Z,1.39
2019-01-26T22:07:25.673Z,1.42
2019-01-26T22:10:09.775Z,1.42
2019-01-26T22:12:47.404Z,1.42
2019-01-26T22:15:46.141Z,1.40
2019-01-26T22:18:21.466Z,1.41
2019-01-26T22:21:13.700Z,1.42
2019-01-26T22:24:12.929Z,1.43
2019-01-26T22:26:50.043Z,1.42
2019-01-26T22:29:21.402Z,1.41
2019-01-26T22:31:55.900Z,1.45
2019-01-26T22:34:32.211Z,1.45
2019-01-26T22:37:09.263Z,1.44
2019-01-26T22:39:58.696Z,1.41
2019-01-26T22:42:32.945Z,1.39
2019-01-26T22:45:06.074Z,1.40
2019-01-26T22:47:37.480Z,1.41
2019-01-26T22:50:12.865Z,1.41
2019-01-26T22:52:44.274Z,1.40
2019-01-26T22:55:18.965Z,1.38
2019-01-26T22:57:58.510Z,1.33
2019-01-26T23:01:04.097Z,1.34
2019-01-26T23:03:50.671Z,1.37
2019-01-26T23:06:39.131Z,1.36
2019-01-26T23:09:35.207Z,1.41
2019-01-26T23:12:50.473Z,1.39
2019-01-26T23:15:54.936Z,1.39
2019-01-26T23:19:25.366Z,1.45
2019-01-26T23:22:37.233Z,1.43
2019-01-26T23:25:46.744Z,1.38
2019-01-26T23:29:00.551Z,1.39
2019-01-26T23:31:36.039Z,1.41
2019-01-26T23:34:07.475Z,1.44
2019-01-26T23:36:38.413Z,1.43
2019-01-26T23:39:12.349Z,1.42
2019-01-26T23:41:44.261Z,1.40
2019-01-26T23:44:15.493Z,1.38
2019-01-26T23:46:47.657Z,1.41
2019-01-26T23:49:28.552Z,1.44
2019-01-26T23:52:06.026Z,1.45
2019-01-26T23:59:34.208Z,1.42
